sensor_id;sensor_type;location;lat;lon;timestamp;pressure;altitude;pressure_sealevel;temperature;humidity
78488;BME280;67885;49.758;9.582;2023-05-27T00:00:03;100094.53;;;19.33;37.65
78488;BME280;67885;49.758;9.582;2023-05-27T00:02:30;100101.53;;;19.26;38.27
78488;BME280;67885;49.758;9.582;2023-05-27T00:04:57;100098.78;;;19.18;37.57
78488;BME280;67885;49.758;9.582;2023-05-27T00:07:23;100081.56;;;19.02;37.91
78488;BME280;67885;49.758;9.582;2023-05-27T00:09:50;100098.03;;;19.08;37.65
78488;BME280;67885;49.758;9.582;2023-05-27T00:12:17;100098.13;;;18.98;37.45
78488;BME280;67885;49.758;9.582;2023-05-27T00:14:44;100094.66;;;18.87;37.56
78488;BME280;67885;49.758;9.582;2023-05-27T00:17:12;100092.38;;;18.75;38.58
78488;BME280;67885;49.758;9.582;2023-05-27T00:19:39;100098.34;;;18.68;38.77
78488;BME280;67885;49.758;9.582;2023-05-27T00:22:06;100099.81;;;18.63;39.12
78488;BME280;67885;49.758;9.582;2023-05-27T00:24:34;100099.66;;;18.64;38.35
78488;BME280;67885;49.758;9.582;2023-05-27T00:27:03;100100.63;;;18.63;39.11
78488;BME280;67885;49.758;9.582;2023-05-27T00:29:30;100097.97;;;18.63;39.14
78488;BME280;67885;49.758;9.582;2023-05-27T00:31:57;100088.53;;;18.41;39.07
78488;BME280;67885;49.758;9.582;2023-05-27T00:34:25;100102.56;;;18.53;38.39
78488;BME280;67885;49.758;9.582;2023-05-27T00:36:51;100099.34;;;18.49;38.80
78488;BME280;67885;49.758;9.582;2023-05-27T00:39:18;100107.38;;;18.49;38.56
78488;BME280;67885;49.758;9.582;2023-05-27T00:41:48;100109.38;;;18.47;38.49
78488;BME280;67885;49.758;9.582;2023-05-27T00:44:16;100112.91;;;18.48;39.18
78488;BME280;67885;49.758;9.582;2023-05-27T00:46:44;100112.91;;;18.48;39.24
78488;BME280;67885;49.758;9.582;2023-05-27T00:49:12;100112.66;;;18.41;39.31
78488;BME280;67885;49.758;9.582;2023-05-27T00:51:40;100117.25;;;18.31;39.83
78488;BME280;67885;49.758;9.582;2023-05-27T00:54:08;100124.34;;;18.22;40.45
78488;BME280;67885;49.758;9.582;2023-05-27T00:56:36;100115.59;;;18.20;40.12
78488;BME280;67885;49.758;9.582;2023-05-27T00:59:03;100110.56;;;18.17;40.20
78488;BME280;67885;49.758;9.582;2023-05-27T01:01:29;100112.41;;;18.16;39.21
78488;BME280;67885;49.758;9.582;2023-05-27T01:03:59;100105.78;;;18.11;39.68
78488;BME280;67885;49.758;9.582;2023-05-27T01:06:37;100102.72;;;18.06;39.12
78488;BME280;67885;49.758;9.582;2023-05-27T01:09:11;100098.78;;;18.00;39.32
78488;BME280;67885;49.758;9.582;2023-05-27T01:11:48;100098.25;;;17.96;39.58
78488;BME280;67885;49.758;9.582;2023-05-27T01:14:18;100093.88;;;17.95;39.63
78488;BME280;67885;49.758;9.582;2023-05-27T01:16:50;100093.44;;;17.90;39.88
78488;BME280;67885;49.758;9.582;2023-05-27T01:19:27;100085.00;;;17.85;40.00
78488;BME280;67885;49.758;9.582;2023-05-27T01:21:58;100089.28;;;17.78;40.99
78488;BME280;67885;49.758;9.582;2023-05-27T01:24:27;100069.69;;;17.67;40.75
78488;BME280;67885;49.758;9.582;2023-05-27T01:26:54;100095.91;;;17.74;40.46
78488;BME280;67885;49.758;9.582;2023-05-27T01:29:22;100100.44;;;17.73;40.91
78488;BME280;67885;49.758;9.582;2023-05-27T01:31:56;100093.53;;;17.70;40.64
78488;BME280;67885;49.758;9.582;2023-05-27T01:34:29;100092.97;;;17.67;41.21
78488;BME280;67885;49.758;9.582;2023-05-27T01:37:01;100099.34;;;17.56;40.99
78488;BME280;67885;49.758;9.582;2023-05-27T01:39:32;100085.97;;;17.56;41.20
78488;BME280;67885;49.758;9.582;2023-05-27T01:42:01;100084.72;;;17.50;41.18
78488;BME280;67885;49.758;9.582;2023-05-27T01:44:30;100087.84;;;17.46;41.25
78488;BME280;67885;49.758;9.582;2023-05-27T01:47:01;100098.16;;;17.41;41.54
78488;BME280;67885;49.758;9.582;2023-05-27T01:49:29;100075.75;;;17.32;41.27
78488;BME280;67885;49.758;9.582;2023-05-27T01:51:56;100079.81;;;17.36;41.33
78488;BME280;67885;49.758;9.582;2023-05-27T01:54:22;100079.00;;;17.35;41.05
78488;BME280;67885;49.758;9.582;2023-05-27T01:56:50;100080.41;;;17.30;41.43
78488;BME280;67885;49.758;9.582;2023-05-27T01:59:17;100086.03;;;17.27;41.55
78488;BME280;67885;49.758;9.582;2023-05-27T02:01:44;100080.97;;;17.24;42.06
78488;BME280;67885;49.758;9.582;2023-05-27T02:04:10;100079.72;;;17.18;42.24
78488;BME280;67885;49.758;9.582;2023-05-27T02:06:37;100078.03;;;17.17;41.44
78488;BME280;67885;49.758;9.582;2023-05-27T02:09:04;100069.59;;;17.12;42.06
78488;BME280;67885;49.758;9.582;2023-05-27T02:11:31;100071.59;;;17.10;41.86
78488;BME280;67885;49.758;9.582;2023-05-27T02:13:59;100047.66;;;16.98;42.23
78488;BME280;67885;49.758;9.582;2023-05-27T02:16:26;100064.00;;;17.05;41.70
78488;BME280;67885;49.758;9.582;2023-05-27T02:18:53;100066.78;;;17.03;42.01
78488;BME280;67885;49.758;9.582;2023-05-27T02:21:21;100059.06;;;17.00;42.13
78488;BME280;67885;49.758;9.582;2023-05-27T02:23:48;100052.88;;;17.00;42.06
78488;BME280;67885;49.758;9.582;2023-05-27T02:26:15;100017.94;;;16.72;42.33
78488;BME280;67885;49.758;9.582;2023-05-27T02:28:42;100059.75;;;16.93;42.55
78488;BME280;67885;49.758;9.582;2023-05-27T02:31:10;100061.16;;;16.87;42.38
78488;BME280;67885;49.758;9.582;2023-05-27T02:33:36;100054.53;;;16.81;42.23
78488;BME280;67885;49.758;9.582;2023-05-27T02:36:03;100057.09;;;16.73;42.72
78488;BME280;67885;49.758;9.582;2023-05-27T02:38:31;100053.16;;;16.67;42.50
78488;BME280;67885;49.758;9.582;2023-05-27T02:40:58;100055.53;;;16.61;42.91
78488;BME280;67885;49.758;9.582;2023-05-27T02:43:24;100057.25;;;16.62;42.82
78488;BME280;67885;49.758;9.582;2023-05-27T02:45:51;100057.25;;;16.62;42.54
78488;BME280;67885;49.758;9.582;2023-05-27T02:48:19;100056.66;;;16.58;42.53
78488;BME280;67885;49.758;9.582;2023-05-27T02:50:46;100059.63;;;16.55;43.02
78488;BME280;67885;49.758;9.582;2023-05-27T02:53:12;100057.94;;;16.54;42.55
78488;BME280;67885;49.758;9.582;2023-05-27T02:55:39;100058.22;;;16.51;42.56
78488;BME280;67885;49.758;9.582;2023-05-27T02:58:06;100053.03;;;16.49;42.57
78488;BME280;67885;49.758;9.582;2023-05-27T03:00:34;100046.38;;;16.44;43.14
78488;BME280;67885;49.758;9.582;2023-05-27T03:03:00;100060.56;;;16.34;42.89
78488;BME280;67885;49.758;9.582;2023-05-27T03:05:31;100052.41;;;16.26;43.01
78488;BME280;67885;49.758;9.582;2023-05-27T03:07:57;100053.13;;;16.18;43.35
78488;BME280;67885;49.758;9.582;2023-05-27T03:10:24;100053.66;;;16.12;43.64
78488;BME280;67885;49.758;9.582;2023-05-27T03:12:51;100050.00;;;16.04;43.85
78488;BME280;67885;49.758;9.582;2023-05-27T03:15:17;100053.22;;;15.97;44.08
78488;BME280;67885;49.758;9.582;2023-05-27T03:17:44;100053.78;;;15.91;43.60
78488;BME280;67885;49.758;9.582;2023-05-27T03:20:11;100051.63;;;15.85;44.16
78488;BME280;67885;49.758;9.582;2023-05-27T03:22:39;100058.22;;;15.81;44.13
78488;BME280;67885;49.758;9.582;2023-05-27T03:25:06;100009.34;;;15.59;46.63
78488;BME280;67885;49.758;9.582;2023-05-27T03:27:33;100058.25;;;15.91;44.43
78488;BME280;67885;49.758;9.582;2023-05-27T03:30:00;100052.91;;;15.91;44.29
78488;BME280;67885;49.758;9.582;2023-05-27T03:32:27;100062.63;;;15.92;43.61
78488;BME280;67885;49.758;9.582;2023-05-27T03:34:54;100067.66;;;15.85;43.76
78488;BME280;67885;49.758;9.582;2023-05-27T03:37:21;100059.94;;;15.82;44.37
78488;BME280;67885;49.758;9.582;2023-05-27T03:39:48;100052.59;;;15.84;43.78
78488;BME280;67885;49.758;9.582;2023-05-27T03:42:15;100056.16;;;15.84;44.21
78488;BME280;67885;49.758;9.582;2023-05-27T03:44:42;100051.78;;;15.83;44.26
78488;BME280;67885;49.758;9.582;2023-05-27T03:47:08;100037.25;;;15.76;44.01
78488;BME280;67885;49.758;9.582;2023-05-27T03:49:35;100052.34;;;15.87;43.86
78488;BME280;67885;49.758;9.582;2023-05-27T03:52:02;100048.69;;;15.88;44.01
78488;BME280;67885;49.758;9.582;2023-05-27T03:54:29;100038.31;;;15.64;43.55
78488;BME280;67885;49.758;9.582;2023-05-27T03:56:57;100058.81;;;15.84;43.64
78488;BME280;67885;49.758;9.582;2023-05-27T03:59:24;100058.47;;;15.78;44.11
78488;BME280;67885;49.758;9.582;2023-05-27T04:01:50;100059.13;;;15.70;44.84
78488;BME280;67885;49.758;9.582;2023-05-27T04:04:17;100056.75;;;15.67;44.95
78488;BME280;67885;49.758;9.582;2023-05-27T04:06:43;100067.81;;;15.62;45.14
78488;BME280;67885;49.758;9.582;2023-05-27T04:09:10;100064.59;;;15.59;45.06
78488;BME280;67885;49.758;9.582;2023-05-27T04:11:37;100061.06;;;15.58;44.46
78488;BME280;67885;49.758;9.582;2023-05-27T04:14:04;100059.81;;;15.62;44.40
78488;BME280;67885;49.758;9.582;2023-05-27T04:16:33;100055.75;;;15.68;45.04
78488;BME280;67885;49.758;9.582;2023-05-27T04:19:01;100057.31;;;15.71;44.67
78488;BME280;67885;49.758;9.582;2023-05-27T04:21:27;100053.53;;;15.73;44.97
78488;BME280;67885;49.758;9.582;2023-05-27T04:23:54;100026.03;;;15.51;44.63
78488;BME280;67885;49.758;9.582;2023-05-27T04:26:20;100053.66;;;15.72;44.60
78488;BME280;67885;49.758;9.582;2023-05-27T04:28:47;100064.34;;;15.72;45.21
78488;BME280;67885;49.758;9.582;2023-05-27T04:31:15;100059.00;;;15.72;45.28
78488;BME280;67885;49.758;9.582;2023-05-27T04:33:42;100064.34;;;15.72;45.40
78488;BME280;67885;49.758;9.582;2023-05-27T04:36:09;100061.81;;;15.70;45.06
78488;BME280;67885;49.758;9.582;2023-05-27T04:38:36;100067.16;;;15.70;45.55
78488;BME280;67885;49.758;9.582;2023-05-27T04:41:03;100077.69;;;15.72;45.46
78488;BME280;67885;49.758;9.582;2023-05-27T04:43:30;100070.56;;;15.72;45.55
78488;BME280;67885;49.758;9.582;2023-05-27T04:45:58;100062.41;;;15.74;45.68
78488;BME280;67885;49.758;9.582;2023-05-27T04:48:27;100064.78;;;15.77;45.61
78488;BME280;67885;49.758;9.582;2023-05-27T04:50:54;100066.97;;;15.83;45.42
78488;BME280;67885;49.758;9.582;2023-05-27T04:53:22;100066.69;;;15.86;45.90
78488;BME280;67885;49.758;9.582;2023-05-27T04:55:49;100065.56;;;15.89;45.80
78488;BME280;67885;49.758;9.582;2023-05-27T04:58:16;100070.78;;;15.90;46.17
78488;BME280;67885;49.758;9.582;2023-05-27T05:00:43;100074.13;;;15.92;45.90
78488;BME280;67885;49.758;9.582;2023-05-27T05:03:18;100061.78;;;15.91;45.93
78488;BME280;67885;49.758;9.582;2023-05-27T05:05:49;100069.91;;;15.90;45.93
78488;BME280;67885;49.758;9.582;2023-05-27T05:08:17;100070.06;;;15.88;46.55
78488;BME280;67885;49.758;9.582;2023-05-27T05:10:46;100068.38;;;15.87;46.42
78488;BME280;67885;49.758;9.582;2023-05-27T05:13:13;100073.00;;;15.85;46.34
78488;BME280;67885;49.758;9.582;2023-05-27T05:15:40;100067.53;;;15.87;45.47
78488;BME280;67885;49.758;9.582;2023-05-27T05:18:08;100067.69;;;15.95;43.78
78488;BME280;67885;49.758;9.582;2023-05-27T05:20:35;100066.03;;;16.04;44.29
78488;BME280;67885;49.758;9.582;2023-05-27T05:23:03;100067.75;;;16.14;43.04
78488;BME280;67885;49.758;9.582;2023-05-27T05:25:30;100064.66;;;16.19;42.89
78488;BME280;67885;49.758;9.582;2023-05-27T05:28:00;100065.78;;;16.26;42.94
78488;BME280;67885;49.758;9.582;2023-05-27T05:30:27;100066.94;;;16.33;42.65
78488;BME280;67885;49.758;9.582;2023-05-27T05:32:53;100070.28;;;16.45;42.42
78488;BME280;67885;49.758;9.582;2023-05-27T05:35:20;100068.50;;;16.56;41.98
78488;BME280;67885;49.758;9.582;2023-05-27T05:37:46;100083.56;;;16.66;42.20
78488;BME280;67885;49.758;9.582;2023-05-27T05:40:15;100079.06;;;16.77;41.80
78488;BME280;67885;49.758;9.582;2023-05-27T05:42:42;100084.81;;;16.82;41.43
78488;BME280;67885;49.758;9.582;2023-05-27T05:45:09;100075.81;;;16.83;41.94
78488;BME280;67885;49.758;9.582;2023-05-27T05:47:35;100077.66;;;16.92;42.29
78488;BME280;67885;49.758;9.582;2023-05-27T05:50:02;100076.22;;;17.08;42.27
78488;BME280;67885;49.758;9.582;2023-05-27T05:52:29;100073.66;;;17.26;41.73
78488;BME280;67885;49.758;9.582;2023-05-27T05:54:55;100078.00;;;17.36;41.96
78488;BME280;67885;49.758;9.582;2023-05-27T05:57:23;100078.91;;;17.55;41.19
78488;BME280;67885;49.758;9.582;2023-05-27T05:59:50;100072.09;;;17.70;40.69
78488;BME280;67885;49.758;9.582;2023-05-27T06:02:16;100076.28;;;17.83;40.83
78488;BME280;67885;49.758;9.582;2023-05-27T06:04:43;100073.28;;;17.96;41.03
78488;BME280;67885;49.758;9.582;2023-05-27T06:07:10;100073.09;;;18.07;40.09
78488;BME280;67885;49.758;9.582;2023-05-27T06:09:37;100075.69;;;18.17;39.43
78488;BME280;67885;49.758;9.582;2023-05-27T06:12:04;100074.41;;;18.21;40.56
78488;BME280;67885;49.758;9.582;2023-05-27T06:14:32;100064.16;;;18.34;40.06
78488;BME280;67885;49.758;9.582;2023-05-27T06:17:00;100067.75;;;18.43;40.12
78488;BME280;67885;49.758;9.582;2023-05-27T06:19:26;100064.00;;;18.54;39.52
78488;BME280;67885;49.758;9.582;2023-05-27T06:21:53;100076.19;;;18.66;39.72
78488;BME280;67885;49.758;9.582;2023-05-27T06:24:19;100071.75;;;18.75;38.85
78488;BME280;67885;49.758;9.582;2023-05-27T06:26:46;100061.41;;;18.80;39.20
78488;BME280;67885;49.758;9.582;2023-05-27T06:29:15;100067.53;;;18.91;39.50
78488;BME280;67885;49.758;9.582;2023-05-27T06:31:43;100059.19;;;18.94;38.68
78488;BME280;67885;49.758;9.582;2023-05-27T06:34:09;100065.44;;;19.02;38.17
78488;BME280;67885;49.758;9.582;2023-05-27T06:36:36;100064.50;;;19.12;37.89
78488;BME280;67885;49.758;9.582;2023-05-27T06:39:02;100060.34;;;19.17;37.93
78488;BME280;67885;49.758;9.582;2023-05-27T06:41:29;100060.88;;;19.21;38.50
78488;BME280;67885;49.758;9.582;2023-05-27T06:43:55;100059.78;;;19.32;37.62
78488;BME280;67885;49.758;9.582;2023-05-27T06:46:22;100064.19;;;19.41;38.05
78488;BME280;67885;49.758;9.582;2023-05-27T06:48:50;100056.28;;;19.40;38.14
78488;BME280;67885;49.758;9.582;2023-05-27T06:51:17;100060.50;;;19.42;37.34
78488;BME280;67885;49.758;9.582;2023-05-27T06:53:43;100056.66;;;19.45;37.74
78488;BME280;67885;49.758;9.582;2023-05-27T06:56:10;100056.53;;;19.54;38.12
78488;BME280;67885;49.758;9.582;2023-05-27T06:58:36;100054.41;;;19.66;37.18
78488;BME280;67885;49.758;9.582;2023-05-27T07:01:03;100048.59;;;19.79;36.89
78488;BME280;67885;49.758;9.582;2023-05-27T07:03:30;100050.19;;;19.90;37.21
78488;BME280;67885;49.758;9.582;2023-05-27T07:05:58;100043.78;;;19.99;36.40
78488;BME280;67885;49.758;9.582;2023-05-27T07:08:24;100044.16;;;20.04;36.24
78488;BME280;67885;49.758;9.582;2023-05-27T07:10:51;100056.09;;;20.10;36.05
78488;BME280;67885;49.758;9.582;2023-05-27T07:13:17;100048.56;;;20.14;36.27
78488;BME280;67885;49.758;9.582;2023-05-27T07:15:44;100049.44;;;20.23;36.66
78488;BME280;67885;49.758;9.582;2023-05-27T07:18:10;100051.97;;;20.41;36.43
78488;BME280;67885;49.758;9.582;2023-05-27T07:20:38;100051.47;;;20.53;35.51
78488;BME280;67885;49.758;9.582;2023-05-27T07:23:06;100047.63;;;20.64;36.57
78488;BME280;67885;49.758;9.582;2023-05-27T07:25:33;100051.69;;;20.77;34.63
78488;BME280;67885;49.758;9.582;2023-05-27T07:28:00;100046.31;;;20.85;34.79
78488;BME280;67885;49.758;9.582;2023-05-27T07:30:27;100042.59;;;20.94;35.91
78488;BME280;67885;49.758;9.582;2023-05-27T07:32:54;100039.38;;;21.07;35.84
78488;BME280;67885;49.758;9.582;2023-05-27T07:35:20;100043.22;;;21.21;35.20
78488;BME280;67885;49.758;9.582;2023-05-27T07:37:47;99994.63;;;20.98;34.34
78488;BME280;67885;49.758;9.582;2023-05-27T07:40:15;100034.66;;;21.26;34.54
78488;BME280;67885;49.758;9.582;2023-05-27T07:42:42;100043.91;;;21.31;34.55
78488;BME280;67885;49.758;9.582;2023-05-27T07:45:09;99999.78;;;21.24;34.53
78488;BME280;67885;49.758;9.582;2023-05-27T07:47:36;100055.28;;;21.50;33.11
78488;BME280;67885;49.758;9.582;2023-05-27T07:50:03;100023.06;;;21.65;33.12
78488;BME280;67885;49.758;9.582;2023-05-27T07:52:29;100022.88;;;21.75;33.52
78488;BME280;67885;49.758;9.582;2023-05-27T07:54:56;100016.59;;;21.82;32.31
78488;BME280;67885;49.758;9.582;2023-05-27T07:57:24;100014.72;;;21.91;32.32
78488;BME280;67885;49.758;9.582;2023-05-27T07:59:51;100014.00;;;21.97;33.29
78488;BME280;67885;49.758;9.582;2023-05-27T08:02:17;100009.41;;;22.06;32.13
78488;BME280;67885;49.758;9.582;2023-05-27T08:04:47;100001.63;;;22.11;32.36
78488;BME280;67885;49.758;9.582;2023-05-27T08:07:14;100001.38;;;22.21;31.92
78488;BME280;67885;49.758;9.582;2023-05-27T08:09:40;100004.38;;;22.26;32.42
78488;BME280;67885;49.758;9.582;2023-05-27T08:12:07;100008.19;;;22.40;33.06
78488;BME280;67885;49.758;9.582;2023-05-27T08:14:35;100015.78;;;22.36;32.08
78488;BME280;67885;49.758;9.582;2023-05-27T08:17:02;100002.09;;;22.61;31.19
78488;BME280;67885;49.758;9.582;2023-05-27T08:19:28;100000.19;;;22.70;31.45
78488;BME280;67885;49.758;9.582;2023-05-27T08:21:56;100003.25;;;22.67;31.19
78488;BME280;67885;49.758;9.582;2023-05-27T08:24:23;99988.44;;;22.63;31.47
78488;BME280;67885;49.758;9.582;2023-05-27T08:26:49;100007.00;;;22.81;31.60
78488;BME280;67885;49.758;9.582;2023-05-27T08:29:16;100002.72;;;22.86;30.96
78488;BME280;67885;49.758;9.582;2023-05-27T08:31:44;99991.66;;;22.96;31.89
78488;BME280;67885;49.758;9.582;2023-05-27T08:34:10;99999.47;;;23.06;31.05
78488;BME280;67885;49.758;9.582;2023-05-27T08:36:37;99993.88;;;23.16;31.22
78488;BME280;67885;49.758;9.582;2023-05-27T08:39:04;99992.75;;;23.25;31.83
78488;BME280;67885;49.758;9.582;2023-05-27T08:41:31;99987.06;;;23.35;31.57
78488;BME280;67885;49.758;9.582;2023-05-27T08:43:59;99968.88;;;23.29;30.82
78488;BME280;67885;49.758;9.582;2023-05-27T08:46:26;99987.03;;;23.50;30.97
78488;BME280;67885;49.758;9.582;2023-05-27T08:48:55;99942.22;;;23.26;30.59
78488;BME280;67885;49.758;9.582;2023-05-27T08:51:23;99973.53;;;23.50;29.57
78488;BME280;67885;49.758;9.582;2023-05-27T08:53:50;99975.56;;;23.48;29.92
78488;BME280;67885;49.758;9.582;2023-05-27T08:56:19;99983.03;;;23.46;30.03
78488;BME280;67885;49.758;9.582;2023-05-27T08:58:47;99964.00;;;23.54;30.12
78488;BME280;67885;49.758;9.582;2023-05-27T09:01:16;99971.53;;;23.58;30.36
78488;BME280;67885;49.758;9.582;2023-05-27T09:03:43;99969.94;;;23.64;30.29
78488;BME280;67885;49.758;9.582;2023-05-27T09:06:11;99962.03;;;23.63;30.00
78488;BME280;67885;49.758;9.582;2023-05-27T09:08:38;99971.72;;;23.57;29.87
78488;BME280;67885;49.758;9.582;2023-05-27T09:11:05;99961.31;;;23.54;29.34
78488;BME280;67885;49.758;9.582;2023-05-27T09:13:33;99957.81;;;23.60;30.34
78488;BME280;67885;49.758;9.582;2023-05-27T09:16:00;99944.97;;;23.62;29.56
78488;BME280;67885;49.758;9.582;2023-05-27T09:18:29;99910.50;;;23.34;30.16
78488;BME280;67885;49.758;9.582;2023-05-27T09:20:56;99942.63;;;23.74;31.08
78488;BME280;67885;49.758;9.582;2023-05-27T09:23:25;99931.78;;;23.89;30.00
78488;BME280;67885;49.758;9.582;2023-05-27T09:25:52;99938.91;;;23.97;30.99
78488;BME280;67885;49.758;9.582;2023-05-27T09:28:21;99938.44;;;24.08;29.51
78488;BME280;67885;49.758;9.582;2023-05-27T09:30:58;99941.63;;;24.18;30.41
78488;BME280;67885;49.758;9.582;2023-05-27T09:33:25;99937.31;;;24.24;29.31
78488;BME280;67885;49.758;9.582;2023-05-27T09:35:52;99936.06;;;24.27;29.28
78488;BME280;67885;49.758;9.582;2023-05-27T09:38:18;99936.59;;;24.37;28.86
78488;BME280;67885;49.758;9.582;2023-05-27T09:40:46;99942.06;;;24.44;28.83
78488;BME280;67885;49.758;9.582;2023-05-27T09:43:13;99948.56;;;24.49;28.08
78488;BME280;67885;49.758;9.582;2023-05-27T09:45:41;99939.41;;;24.50;28.69
78488;BME280;67885;49.758;9.582;2023-05-27T09:48:10;99933.84;;;24.58;29.19
78488;BME280;67885;49.758;9.582;2023-05-27T09:50:40;99931.06;;;24.73;28.62
78488;BME280;67885;49.758;9.582;2023-05-27T09:53:07;99931.53;;;24.77;29.63
78488;BME280;67885;49.758;9.582;2023-05-27T09:55:34;99929.91;;;24.83;28.40
78488;BME280;67885;49.758;9.582;2023-05-27T09:58:03;99923.56;;;24.75;27.87
78488;BME280;67885;49.758;9.582;2023-05-27T10:00:29;99920.25;;;24.73;28.40
78488;BME280;67885;49.758;9.582;2023-05-27T10:03:00;99917.34;;;24.75;29.03
78488;BME280;67885;49.758;9.582;2023-05-27T10:05:28;99915.69;;;24.81;28.39
78488;BME280;67885;49.758;9.582;2023-05-27T10:07:55;99913.63;;;24.83;28.32
78488;BME280;67885;49.758;9.582;2023-05-27T10:10:22;99910.97;;;24.89;28.30
78488;BME280;67885;49.758;9.582;2023-05-27T10:12:50;99837.75;;;24.48;28.27
78488;BME280;67885;49.758;9.582;2023-05-27T10:15:27;99899.53;;;24.94;28.06
78488;BME280;67885;49.758;9.582;2023-05-27T10:17:55;99901.81;;;24.97;27.94
78488;BME280;67885;49.758;9.582;2023-05-27T10:20:31;99900.38;;;24.95;28.63
78488;BME280;67885;49.758;9.582;2023-05-27T10:23:09;99888.50;;;25.02;27.78
78488;BME280;67885;49.758;9.582;2023-05-27T10:25:37;99885.81;;;25.02;28.42
78488;BME280;67885;49.758;9.582;2023-05-27T10:28:04;99888.56;;;25.09;27.67
78488;BME280;67885;49.758;9.582;2023-05-27T10:30:44;99883.38;;;25.14;27.54
78488;BME280;67885;49.758;9.582;2023-05-27T10:33:12;99861.19;;;24.97;26.92
78488;BME280;67885;49.758;9.582;2023-05-27T10:35:40;99864.91;;;24.89;26.92
78488;BME280;67885;49.758;9.582;2023-05-27T10:38:14;99873.75;;;25.12;27.43
78488;BME280;67885;49.758;9.582;2023-05-27T10:40:42;99872.28;;;25.09;26.93
78488;BME280;67885;49.758;9.582;2023-05-27T10:43:16;99873.31;;;25.08;27.17
78488;BME280;67885;49.758;9.582;2023-05-27T10:45:45;99871.66;;;25.07;27.83
78488;BME280;67885;49.758;9.582;2023-05-27T10:48:16;99872.94;;;25.11;26.61
78488;BME280;67885;49.758;9.582;2023-05-27T10:50:50;99866.50;;;25.25;27.76
78488;BME280;67885;49.758;9.582;2023-05-27T10:53:18;99866.81;;;25.37;26.12
78488;BME280;67885;49.758;9.582;2023-05-27T10:55:47;99835.78;;;25.05;27.51
78488;BME280;67885;49.758;9.582;2023-05-27T10:58:15;99858.88;;;25.36;27.85
78488;BME280;67885;49.758;9.582;2023-05-27T11:00:45;99859.75;;;25.50;25.87
78488;BME280;67885;49.758;9.582;2023-05-27T11:03:18;99854.09;;;25.51;25.96
78488;BME280;67885;49.758;9.582;2023-05-27T11:05:46;99853.09;;;25.66;24.23
78488;BME280;67885;49.758;9.582;2023-05-27T11:08:13;99834.94;;;25.59;25.14
78488;BME280;67885;49.758;9.582;2023-05-27T11:10:40;99856.03;;;25.71;25.47
78488;BME280;67885;49.758;9.582;2023-05-27T11:13:08;99842.88;;;25.74;25.62
78488;BME280;67885;49.758;9.582;2023-05-27T11:15:39;99787.34;;;25.44;25.79
78488;BME280;67885;49.758;9.582;2023-05-27T11:18:07;99836.19;;;25.70;26.68
78488;BME280;67885;49.758;9.582;2023-05-27T11:20:35;99834.75;;;25.74;25.68
78488;BME280;67885;49.758;9.582;2023-05-27T11:23:01;99824.72;;;25.68;25.57
78488;BME280;67885;49.758;9.582;2023-05-27T11:25:28;99824.31;;;25.65;26.00
78488;BME280;67885;49.758;9.582;2023-05-27T11:27:55;99822.84;;;25.69;26.40
78488;BME280;67885;49.758;9.582;2023-05-27T11:30:24;99819.72;;;25.72;25.78
78488;BME280;67885;49.758;9.582;2023-05-27T11:32:52;99826.81;;;25.73;25.87
78488;BME280;67885;49.758;9.582;2023-05-27T11:35:20;99816.41;;;25.77;26.50
78488;BME280;67885;49.758;9.582;2023-05-27T11:37:49;99813.88;;;25.75;25.25
78488;BME280;67885;49.758;9.582;2023-05-27T11:40:17;99794.47;;;25.71;25.17
78488;BME280;67885;49.758;9.582;2023-05-27T11:42:44;99811.41;;;25.80;25.84
78488;BME280;67885;49.758;9.582;2023-05-27T11:45:16;99808.06;;;25.85;26.02
78488;BME280;67885;49.758;9.582;2023-05-27T11:47:44;99799.09;;;25.91;25.04
78488;BME280;67885;49.758;9.582;2023-05-27T11:50:14;99798.66;;;25.94;25.29
78488;BME280;67885;49.758;9.582;2023-05-27T11:52:53;99791.56;;;25.93;25.27
78488;BME280;67885;49.758;9.582;2023-05-27T11:55:20;99791.38;;;26.08;24.98
78488;BME280;67885;49.758;9.582;2023-05-27T11:57:48;99802.44;;;26.20;24.24
78488;BME280;67885;49.758;9.582;2023-05-27T12:00:15;99783.84;;;26.17;23.71
78488;BME280;67885;49.758;9.582;2023-05-27T12:02:43;99788.00;;;26.19;25.44
78488;BME280;67885;49.758;9.582;2023-05-27T12:05:10;99764.44;;;26.06;24.50
78488;BME280;67885;49.758;9.582;2023-05-27T12:07:36;99780.91;;;26.25;24.86
78488;BME280;67885;49.758;9.582;2023-05-27T12:10:08;99780.72;;;26.13;24.65
78488;BME280;67885;49.758;9.582;2023-05-27T12:12:35;99772.59;;;26.06;23.73
78488;BME280;67885;49.758;9.582;2023-05-27T12:15:03;99773.41;;;26.07;24.03
78488;BME280;67885;49.758;9.582;2023-05-27T12:17:30;99774.25;;;26.14;24.10
78488;BME280;67885;49.758;9.582;2023-05-27T12:19:57;99758.19;;;26.13;23.32
78488;BME280;67885;49.758;9.582;2023-05-27T12:22:23;99764.00;;;26.23;22.77
78488;BME280;67885;49.758;9.582;2023-05-27T12:24:50;99761.91;;;26.25;23.88
78488;BME280;67885;49.758;9.582;2023-05-27T12:27:19;99760.22;;;26.24;23.66
78488;BME280;67885;49.758;9.582;2023-05-27T12:29:45;99757.53;;;26.24;23.43
78488;BME280;67885;49.758;9.582;2023-05-27T12:32:13;99757.53;;;26.17;23.19
78488;BME280;67885;49.758;9.582;2023-05-27T12:34:39;99753.56;;;26.20;23.05
78488;BME280;67885;49.758;9.582;2023-05-27T12:37:06;99742.06;;;26.24;22.67
78488;BME280;67885;49.758;9.582;2023-05-27T12:39:33;99743.50;;;26.27;22.97
78488;BME280;67885;49.758;9.582;2023-05-27T12:41:59;99736.81;;;26.30;23.06
78488;BME280;67885;49.758;9.582;2023-05-27T12:44:28;99744.75;;;26.31;22.98
78488;BME280;67885;49.758;9.582;2023-05-27T12:46:54;99732.22;;;26.23;23.76
78488;BME280;67885;49.758;9.582;2023-05-27T12:49:21;99744.38;;;26.21;23.92
78488;BME280;67885;49.758;9.582;2023-05-27T12:51:47;99724.53;;;26.20;24.18
78488;BME280;67885;49.758;9.582;2023-05-27T12:54:14;99732.28;;;26.17;23.36